Time;durP1;ratioP1;P1;durP2;ratioP2;P2;SDS_P1;SDS_P2;PMS_P1;PMS_P2;Temp;Humidity;BMP_temperature;BMP_pressure;BME280_temperature;BME280_humidity;BME280_pressure;Samples;Min_cycle;Max_cycle;Signal;HPM_P1;HPM_P2
2024/01/23 00:00:48;;;;;;;15.48;8.18;;;;;;;-4.49;57.72;100335.56;6277475;22;20003;-61
2024/01/23 00:03:13;;;;;;;15.55;8.55;;;;;;;-4.49;58.10;100331.22;6277829;22;20011;-61
2024/01/23 00:05:39;;;;;;;15.55;8.43;;;;;;;-4.48;58.12;100327.72;6277757;22;20305;-61
2024/01/23 00:08:05;;;;;;;15.90;8.27;;;;;;;-4.56;58.53;100340.03;6277291;22;20799;-62
2024/01/23 00:10:30;;;;;;;14.68;8.98;;;;;;;-4.85;58.30;100275.00;6275959;22;20080;-61
2024/01/23 00:12:56;;;;;;;14.80;9.07;;;;;;;-4.54;58.53;100332.16;6277478;22;19995;-63
2024/01/23 00:15:21;;;;;;;17.52;8.07;;;;;;;-4.54;58.68;100326.91;6277347;22;20007;-58
2024/01/23 00:17:47;;;;;;;15.65;8.45;;;;;;;-4.62;58.68;100334.84;6275888;22;20016;-62
2024/01/23 00:20:12;;;;;;;14.50;8.30;;;;;;;-4.60;58.93;100330.47;6277671;22;20270;-60
2024/01/23 00:22:38;;;;;;;15.27;8.55;;;;;;;-4.57;58.21;100317.38;6277583;22;20007;-62
2024/01/23 00:25:04;;;;;;;15.60;8.68;;;;;;;-4.66;58.60;100314.84;6276931;22;20408;-56
2024/01/23 00:27:29;;;;;;;16.73;8.52;;;;;;;-4.60;58.72;100327.84;6277242;22;20011;-59
2024/01/23 00:29:55;;;;;;;16.00;9.00;;;;;;;-4.66;58.47;100312.22;6276666;22;20069;-60
2024/01/23 00:32:20;;;;;;;14.45;9.05;;;;;;;-4.59;58.44;100311.28;6277942;22;20331;-61
2024/01/23 00:34:46;;;;;;;15.63;8.93;;;;;;;-4.57;58.80;100296.47;6277026;22;20097;-61
2024/01/23 00:37:11;;;;;;;17.05;8.98;;;;;;;-4.55;58.17;100313.00;6277468;22;20087;-61
2024/01/23 00:39:37;;;;;;;15.50;8.48;;;;;;;-4.59;58.85;100282.53;6277253;22;20082;-60
2024/01/23 00:42:07;;;;;;;15.88;8.80;;;;;;;-4.45;58.69;100295.47;6276848;22;20098;-60
2024/01/23 00:44:33;;;;;;;14.73;8.57;;;;;;;-4.58;58.85;100284.28;6276870;22;20095;-63
2024/01/23 00:46:59;;;;;;;17.48;8.55;;;;;;;-4.39;58.41;100289.28;6277018;22;20416;-61
2024/01/23 00:49:24;;;;;;;16.55;8.85;;;;;;;-4.29;58.45;100283.09;6277076;22;20012;-62
2024/01/23 00:51:50;;;;;;;16.20;8.57;;;;;;;-4.29;57.99;100280.47;6277366;22;20007;-57
2024/01/23 00:54:15;;;;;;;16.90;9.32;;;;;;;-4.42;58.43;100284.97;6277141;22;20401;-58
2024/01/23 00:56:44;;;;;;;14.35;8.48;;;;;;;-4.39;58.90;100273.59;6276242;22;20006;-57
2024/01/23 00:59:12;;;;;;;18.58;9.98;;;;;;;-4.36;59.17;100287.53;6277066;22;20035;-60
2024/01/23 01:01:38;;;;;;;16.40;9.15;;;;;;;-4.65;59.10;100212.06;6277187;22;20016;-59
2024/01/23 01:04:04;;;;;;;15.63;8.43;;;;;;;-4.30;58.52;100255.22;6276556;22;20008;-62
2024/01/23 01:06:29;;;;;;;18.63;9.20;;;;;;;-4.27;58.84;100267.38;6276617;22;20488;-62
2024/01/23 01:08:55;;;;;;;17.48;9.18;;;;;;;-4.26;58.63;100243.84;6277084;22;20004;-62
2024/01/23 01:11:21;;;;;;;17.85;8.93;;;;;;;-4.20;58.55;100264.66;6277076;22;20065;-62
2024/01/23 01:13:46;;;;;;;13.75;8.65;;;;;;;-4.30;57.73;100225.59;6276190;22;20000;-62
2024/01/23 01:16:12;;;;;;;15.35;8.68;;;;;;;-4.21;58.62;100242.00;6276604;22;20008;-61
2024/01/23 01:18:39;;;;;;;16.33;9.25;;;;;;;-4.16;58.52;100254.16;6276301;22;20031;-60
2024/01/23 01:21:07;;;;;;;14.85;9.00;;;;;;;-4.21;58.21;100236.78;6276846;22;20275;-62
2024/01/23 01:23:34;;;;;;;16.00;8.70;;;;;;;-4.18;58.47;100226.28;6276559;22;20011;-61
2024/01/23 01:26:00;;;;;;;14.55;8.43;;;;;;;-4.10;58.01;100233.16;6276163;22;20011;-58
2024/01/23 01:28:26;;;;;;;17.55;9.40;;;;;;;-4.15;58.43;100234.97;6276616;22;19999;-61
2024/01/23 01:30:52;;;;;;;16.95;9.95;;;;;;;-4.19;58.14;100229.78;6275191;22;19999;-58
2024/01/23 01:33:18;;;;;;;20.17;8.95;;;;;;;-4.13;58.32;100241.03;6277034;22;20414;-63
2024/01/23 01:35:44;;;;;;;16.92;9.70;;;;;;;-4.10;58.42;100251.47;6276440;22;20103;-61
2024/01/23 01:38:09;;;;;;;18.30;10.02;;;;;;;-4.13;58.14;100238.44;6276532;22;20054;-61
2024/01/23 01:40:36;;;;;;;16.88;8.95;;;;;;;-4.12;58.98;100240.16;6275990;22;19999;-59
2024/01/23 01:43:02;;;;;;;15.48;9.07;;;;;;;-4.09;58.33;100235.75;6274443;22;20094;-62
2024/01/23 01:45:27;;;;;;;18.23;10.63;;;;;;;-4.03;58.19;100226.97;6275406;22;20043;-62
2024/01/23 01:47:53;;;;;;;17.23;10.20;;;;;;;-4.10;58.07;100222.69;6275985;22;20003;-62
2024/01/23 01:50:19;;;;;;;18.48;9.70;;;;;;;-4.11;58.33;100220.97;6276681;22;20000;-63
2024/01/23 01:52:45;;;;;;;19.58;11.18;;;;;;;-4.12;58.69;100217.50;6276786;22;20004;-62
2024/01/23 01:55:12;;;;;;;20.58;9.63;;;;;;;-4.02;58.03;100215.63;6276297;22;20392;-62
2024/01/23 01:57:40;;;;;;;15.77;9.23;;;;;;;-4.28;58.59;100172.41;6276123;22;20098;-58
2024/01/23 02:00:07;;;;;;;18.38;10.52;;;;;;;-4.09;59.07;100208.75;6276398;22;20007;-59
2024/01/23 02:02:33;;;;;;;16.85;9.85;;;;;;;-3.97;58.51;100221.63;6274682;22;20038;-61
2024/01/23 02:04:59;;;;;;;16.30;9.30;;;;;;;-3.94;58.62;100241.69;6275843;22;20003;-62
2024/01/23 02:07:25;;;;;;;18.08;9.98;;;;;;;-3.89;58.37;100201.47;6276363;22;20073;-58
2024/01/23 02:09:51;;;;;;;18.17;10.55;;;;;;;-3.89;58.60;100200.59;6276663;22;19999;-59
2024/01/23 02:12:16;;;;;;;18.05;10.05;;;;;;;-4.21;58.06;100153.13;6275886;22;20004;-59
2024/01/23 02:14:42;;;;;;;17.58;10.18;;;;;;;-3.92;58.13;100184.97;6275942;22;20004;-60
2024/01/23 02:17:08;;;;;;;19.33;10.38;;;;;;;-3.83;58.65;100197.88;6274955;22;20004;-60
2024/01/23 02:19:33;;;;;;;19.80;10.20;;;;;;;-3.77;57.48;100189.94;6275787;22;20003;-61
2024/01/23 02:21:59;;;;;;;20.65;10.90;;;;;;;-3.79;58.20;100210.03;6276032;22;20083;-55
2024/01/23 02:24:24;;;;;;;16.23;10.32;;;;;;;-3.82;58.27;100183.06;6274781;22;20061;-61
2024/01/23 02:26:50;;;;;;;19.90;10.43;;;;;;;-3.78;57.78;100192.59;6276814;22;20014;-60
2024/01/23 02:29:16;;;;;;;22.05;10.77;;;;;;;-3.80;57.81;100178.69;6276187;22;20014;-61
2024/01/23 02:31:41;;;;;;;20.98;11.00;;;;;;;-3.77;58.39;100178.63;6275802;22;20034;-60
2024/01/23 02:34:07;;;;;;;16.13;9.52;;;;;;;-3.72;57.85;100179.41;6276134;22;20412;-56
2024/01/23 02:36:36;;;;;;;17.58;9.73;;;;;;;-3.75;57.98;100184.69;6276447;22;20416;-60
2024/01/23 02:39:03;;;;;;;21.00;10.13;;;;;;;-3.75;58.59;100171.59;6276087;22;20031;-57
2024/01/23 02:41:29;;;;;;;21.27;11.10;;;;;;;-3.73;57.79;100174.22;6275324;22;20050;-62
2024/01/23 02:43:55;;;;;;;19.17;10.40;;;;;;;-3.76;58.15;100162.03;6275584;22;20073;-65
2024/01/23 02:46:20;;;;;;;19.08;10.32;;;;;;;-3.70;58.55;100169.78;6276407;22;20015;-60
2024/01/23 02:48:46;;;;;;;19.23;10.05;;;;;;;-3.74;57.94;100162.88;6276036;22;20035;-62
2024/01/23 02:51:19;;;;;;;18.70;11.00;;;;;;;-3.72;58.67;100165.47;6275678;22;19999;-61
2024/01/23 02:53:46;;;;;;;19.35;10.85;;;;;;;-3.79;58.67;100169.94;6279063;22;20033;-59
2024/01/23 02:56:12;;;;;;;19.63;10.55;;;;;;;-3.75;58.75;100176.84;6279708;22;20024;-61
2024/01/23 02:58:39;;;;;;;23.75;10.60;;;;;;;-3.70;58.62;100167.16;6279154;22;20010;-60
2024/01/23 03:01:05;;;;;;;22.23;11.73;;;;;;;-3.70;57.78;100154.06;6278808;22;20000;-61
2024/01/23 03:03:30;;;;;;;22.52;11.38;;;;;;;-3.77;57.74;100136.75;6279411;22;20022;-57
2024/01/23 03:05:56;;;;;;;20.40;11.10;;;;;;;-3.67;58.19;100159.25;6279789;22;20007;-61
2024/01/23 03:08:23;;;;;;;22.35;10.93;;;;;;;-3.57;57.58;100169.59;6280185;22;20086;-54
2024/01/23 03:10:49;;;;;;;20.75;11.32;;;;;;;-3.66;57.67;100155.75;6279155;22;20007;-62
2024/01/23 03:13:15;;;;;;;20.17;11.25;;;;;;;-3.67;58.29;100158.41;6279214;22;20000;-62
2024/01/23 03:15:41;;;;;;;23.17;11.52;;;;;;;-3.70;58.78;100161.09;6279206;22;20078;-60
2024/01/23 03:18:06;;;;;;;20.50;11.35;;;;;;;-3.62;57.97;100149.59;6277738;22;20004;-60
2024/01/23 03:20:33;;;;;;;19.98;11.52;;;;;;;-3.63;58.41;100145.22;6278875;22;20075;-60
2024/01/23 03:22:59;;;;;;;19.45;10.85;;;;;;;-3.60;58.66;100144.31;6278931;22;20086;-62
2024/01/23 03:25:24;;;;;;;23.80;11.43;;;;;;;-3.51;57.80;100145.91;6279154;22;20050;-62
2024/01/23 03:27:50;;;;;;;18.77;11.23;;;;;;;-3.57;58.13;100125.09;6279193;22;20006;-58
2024/01/23 03:30:31;;;;;;;22.00;11.05;;;;;;;-3.42;58.45;100139.66;6278832;22;20396;-61
2024/01/23 03:32:58;;;;;;;20.83;11.73;;;;;;;-3.50;58.68;100140.63;6278638;22;20092;-62
2024/01/23 03:35:24;;;;;;;22.33;12.43;;;;;;;-3.56;58.35;100122.44;6278278;22;20054;-62
2024/01/23 03:37:51;;;;;;;24.75;11.38;;;;;;;-3.46;58.39;100146.69;6278568;22;20346;-63
2024/01/23 03:40:16;;;;;;;18.25;11.40;;;;;;;-3.43;57.98;100137.94;6278304;22;20039;-59
2024/01/23 03:42:42;;;;;;;21.30;11.98;;;;;;;-3.46;58.24;100131.00;6278234;22;20514;-57
2024/01/23 03:45:08;;;;;;;21.30;11.45;;;;;;;-3.46;58.62;100138.84;6278915;22;20108;-61
2024/01/23 03:47:35;;;;;;;23.20;11.95;;;;;;;-3.77;58.17;100087.88;6279195;22;20003;-62
2024/01/23 03:50:03;;;;;;;19.05;11.02;;;;;;;-3.75;58.75;100093.97;6278384;22;20027;-56
2024/01/23 03:52:31;;;;;;;19.38;10.10;;;;;;;-3.42;58.17;100137.88;6278751;22;20007;-57
2024/01/23 03:54:56;;;;;;;22.70;12.05;;;;;;;-3.39;57.38;100137.84;6278525;22;20102;-58
2024/01/23 03:57:22;;;;;;;21.70;12.25;;;;;;;-3.39;57.70;100132.59;6279551;22;20037;-60
2024/01/23 03:59:48;;;;;;;22.63;11.98;;;;;;;-3.43;58.06;100115.22;6279377;22;20824;-56
2024/01/23 04:02:14;;;;;;;24.45;12.50;;;;;;;-3.41;58.56;100116.06;6277866;22;20090;-55
2024/01/23 04:04:40;;;;;;;22.92;11.25;;;;;;;-3.38;57.64;100102.91;6277420;22;20061;-63
2024/01/23 04:07:05;;;;;;;20.58;11.65;;;;;;;-3.66;57.97;100058.06;6277338;22;19999;-62
2024/01/23 04:09:31;;;;;;;21.48;11.73;;;;;;;-3.40;58.46;100109.06;6277181;22;20023;-66
2024/01/23 04:11:56;;;;;;;22.30;11.05;;;;;;;-3.37;58.23;100115.13;6278102;22;20007;-63
2024/01/23 04:14:22;;;;;;;20.67;11.10;;;;;;;-3.41;58.44;100123.91;6277439;22;20024;-65
2024/01/23 04:16:47;;;;;;;21.65;10.82;;;;;;;-3.65;57.59;100055.41;6276237;22;20078;-64
2024/01/23 04:19:13;;;;;;;21.52;11.63;;;;;;;-3.43;57.79;100103.91;6277264;22;20064;-63
2024/01/23 04:21:39;;;;;;;21.38;11.32;;;;;;;-3.46;58.04;100102.19;6277575;22;20439;-63
2024/01/23 04:24:04;;;;;;;22.80;11.27;;;;;;;-3.43;58.06;100099.50;6276293;22;20300;-66
2024/01/23 04:26:30;;;;;;;22.83;11.82;;;;;;;-3.68;57.83;100045.00;6277429;22;20022;-59
2024/01/23 04:28:56;;;;;;;22.65;11.77;;;;;;;-3.47;58.24;100088.25;6277097;22;20011;-64
2024/01/23 04:31:22;;;;;;;22.10;11.75;;;;;;;-3.63;57.79;100077.19;6277214;22;20067;-63
2024/01/23 04:33:49;;;;;;;21.40;11.27;;;;;;;-3.68;58.47;100055.47;6276509;22;20010;-63
2024/01/23 04:36:16;;;;;;;20.63;11.65;;;;;;;-3.43;58.38;100099.50;6276847;22;20355;-64
2024/01/23 04:38:42;;;;;;;27.63;12.57;;;;;;;-3.40;58.08;100102.06;6276881;22;20056;-62
2024/01/23 04:41:09;;;;;;;22.52;12.77;;;;;;;-3.38;58.17;100100.28;6277304;22;20008;-63
2024/01/23 04:43:34;;;;;;;22.88;12.48;;;;;;;-3.40;58.72;100112.53;6275896;22;20018;-65
2024/01/23 04:46:00;;;;;;;23.83;12.30;;;;;;;-3.34;57.88;100083.66;6277101;22;20047;-63
2024/01/23 04:48:26;;;;;;;24.30;12.32;;;;;;;-3.58;58.36;100063.16;6276855;22;19996;-63
2024/01/23 04:50:51;;;;;;;23.50;12.45;;;;;;;-3.46;58.23;100047.22;6277419;22;20086;-62
2024/01/23 04:53:17;;;;;;;20.20;11.32;;;;;;;-3.26;57.81;100077.41;6276889;22;20078;-63
2024/01/23 04:55:42;;;;;;;21.48;11.85;;;;;;;-3.36;58.39;100059.25;6276556;22;20006;-64
2024/01/23 04:58:08;;;;;;;22.13;11.88;;;;;;;-3.34;58.05;100067.06;6274946;22;20388;-63
2024/01/23 05:00:33;;;;;;;22.25;10.95;;;;;;;-3.35;58.68;100081.94;6277139;22;20003;-61
2024/01/23 05:02:59;;;;;;;25.50;13.23;;;;;;;-3.37;58.11;100057.53;6277623;22;20401;-63
2024/01/23 05:05:24;;;;;;;22.77;13.55;;;;;;;-3.36;58.72;100061.88;6276729;22;20008;-65
2024/01/23 05:07:49;;;;;;;23.33;12.40;;;;;;;-3.34;58.52;100074.91;6276868;22;20263;-63
2024/01/23 05:10:15;;;;;;;24.50;13.35;;;;;;;-3.20;57.74;100065.03;6277442;22;20092;-64
2024/01/23 05:12:41;;;;;;;24.77;12.52;;;;;;;-3.37;58.67;100035.72;6276995;22;20003;-64
2024/01/23 05:15:07;;;;;;;24.77;13.13;;;;;;;-3.29;59.07;100061.75;6276542;22;20415;-62
2024/01/23 05:17:33;;;;;;;23.52;12.88;;;;;;;-3.30;58.14;100029.44;6276687;22;20435;-58
2024/01/23 05:19:59;;;;;;;25.70;13.20;;;;;;;-3.24;58.67;100044.19;6276700;22;20003;-64
2024/01/23 05:22:24;;;;;;;23.67;11.80;;;;;;;-3.24;57.69;100026.72;6276770;22;19995;-63
2024/01/23 05:24:50;;;;;;;23.90;12.82;;;;;;;-3.31;57.94;100032.97;6276640;22;20004;-63
2024/01/23 05:27:15;;;;;;;24.90;12.55;;;;;;;-3.36;58.68;100030.47;6275394;22;20004;-63
2024/01/23 05:29:41;;;;;;;24.95;12.88;;;;;;;-3.38;59.28;100013.03;6277196;22;20049;-63
2024/01/23 05:32:06;;;;;;;25.20;12.68;;;;;;;-3.38;58.79;100018.28;6276039;22;20000;-62
2024/01/23 05:34:32;;;;;;;26.60;13.60;;;;;;;-3.32;58.86;100015.53;6276976;22;20003;-63
2024/01/23 05:36:58;;;;;;;22.35;11.85;;;;;;;-3.39;59.23;100000.84;6276855;22;20396;-62
2024/01/23 05:39:24;;;;;;;24.80;13.27;;;;;;;-3.44;59.39;99984.38;6276678;22;20008;-62
2024/01/23 05:41:50;;;;;;;23.27;12.48;;;;;;;-3.44;59.43;99993.06;6276689;22;20089;-64
2024/01/23 05:44:16;;;;;;;24.17;12.18;;;;;;;-3.40;59.17;99993.88;6276902;22;20081;-64
2024/01/23 05:46:41;;;;;;;23.25;13.05;;;;;;;-3.46;59.30;99990.50;6276366;22;20091;-64
2024/01/23 05:49:07;;;;;;;25.80;12.93;;;;;;;-3.51;59.68;99991.47;6276296;22;20078;-65
2024/01/23 05:51:32;;;;;;;23.80;12.15;;;;;;;-3.36;59.32;100012.13;6277264;22;20003;-63
2024/01/23 05:53:58;;;;;;;27.52;12.95;;;;;;;-3.59;59.56;99998.63;6276308;22;20066;-63
2024/01/23 05:56:24;;;;;;;24.60;13.15;;;;;;;-3.44;59.68;100029.72;6276793;22;20011;-64
2024/01/23 05:58:49;;;;;;;26.92;13.68;;;;;;;-3.45;59.93;100022.75;6276923;22;20297;-63
2024/01/23 06:01:15;;;;;;;24.75;12.85;;;;;;;-3.37;59.55;100031.34;6276294;22;20003;-63
2024/01/23 06:03:40;;;;;;;26.52;13.55;;;;;;;-3.32;59.48;100024.25;6276146;22;20006;-64
2024/01/23 06:06:06;;;;;;;25.73;13.30;;;;;;;-3.58;59.45;99974.19;6276302;22;20010;-63
2024/01/23 06:08:31;;;;;;;24.33;12.73;;;;;;;-3.23;58.84;100009.25;6277429;22;20000;-63
2024/01/23 06:10:57;;;;;;;24.65;13.38;;;;;;;-3.19;58.99;100032.72;6276403;22;20007;-63
2024/01/23 06:13:22;;;;;;;29.23;13.82;;;;;;;-3.12;59.48;100051.81;6276272;22;20006;-64
2024/01/23 06:15:48;;;;;;;26.05;13.25;;;;;;;-3.20;58.79;100053.69;6275470;22;20266;-63
2024/01/23 06:18:13;;;;;;;24.27;13.98;;;;;;;-3.09;58.88;100066.56;6276666;22;20022;-63
2024/01/23 06:20:39;;;;;;;28.90;15.00;;;;;;;-3.11;58.37;100074.47;6276222;22;20004;-62
2024/01/23 06:23:05;;;;;;;25.45;13.20;;;;;;;-3.06;58.62;100083.09;6276592;22;20004;-62
2024/01/23 06:25:30;;;;;;;29.58;14.25;;;;;;;-3.09;58.23;100080.56;6276323;22;20007;-62
2024/01/23 06:27:55;;;;;;;25.58;13.98;;;;;;;-3.10;58.54;100054.38;6276291;22;20072;-62
2024/01/23 06:30:21;;;;;;;26.48;14.50;;;;;;;-3.12;58.67;100064.91;6276297;22;20004;-63
2024/01/23 06:32:46;;;;;;;25.27;13.35;;;;;;;-3.10;58.68;100070.09;6275706;22;20000;-62
2024/01/23 06:35:12;;;;;;;23.92;13.82;;;;;;;-3.13;58.32;100072.78;6276100;22;20079;-63
2024/01/23 06:37:38;;;;;;;28.58;14.45;;;;;;;-3.13;58.91;100055.31;6276584;22;20039;-57
2024/01/23 06:40:04;;;;;;;28.83;14.00;;;;;;;-3.12;58.05;100062.28;6276641;22;20004;-64
2024/01/23 06:42:30;;;;;;;35.83;15.82;;;;;;;-3.13;59.55;100085.88;6276078;22;20065;-63
2024/01/23 06:44:55;;;;;;;29.20;14.70;;;;;;;-3.27;59.08;100070.44;6275860;22;20019;-64
2024/01/23 06:47:21;;;;;;;28.60;14.52;;;;;;;-3.08;58.80;100099.72;6276530;22;20010;-63
2024/01/23 06:49:46;;;;;;;32.17;15.20;;;;;;;-3.05;58.96;100092.69;6276432;22;20004;-64
2024/01/23 06:52:12;;;;;;;29.38;15.70;;;;;;;-3.16;59.69;100076.31;6275842;22;19996;-63
2024/01/23 06:54:37;;;;;;;28.13;14.20;;;;;;;-3.01;58.74;100071.66;6276801;22;20050;-63
2024/01/23 06:57:03;;;;;;;33.13;14.45;;;;;;;-2.99;59.25;100078.59;6276565;22;20015;-63
2024/01/23 06:59:29;;;;;;;31.85;15.90;;;;;;;-2.94;58.61;100057.53;6276287;22;20309;-63
2024/01/23 07:01:54;;;;;;;30.45;15.20;;;;;;;-2.98;58.30;100058.50;6276175;22;20003;-63
2024/01/23 07:04:20;;;;;;;27.92;14.52;;;;;;;-2.91;58.99;100055.72;6276284;22;20062;-67
2024/01/23 07:06:45;;;;;;;29.00;15.18;;;;;;;-2.95;58.97;100061.03;6275944;22;20400;-62
2024/01/23 07:09:11;;;;;;;25.33;14.95;;;;;;;-2.88;59.52;100070.53;6275968;22;20011;-62
2024/01/23 07:11:41;;;;;;;28.83;14.02;;;;;;;-2.77;58.19;100088.63;6276208;22;20147;-62
2024/01/23 07:14:09;;;;;;;27.90;14.70;;;;;;;-2.84;58.53;100077.41;6276322;22;20027;-64
2024/01/23 07:16:35;;;;;;;27.65;14.68;;;;;;;-2.84;59.33;100069.56;6275740;22;20470;-63
2024/01/23 07:19:00;;;;;;;33.72;15.75;;;;;;;-2.89;58.76;100053.94;6275953;22;20007;-61
2024/01/23 07:21:26;;;;;;;34.33;16.08;;;;;;;-2.79;58.81;100038.88;6276083;22;20089;-63
2024/01/23 07:23:51;;;;;;;30.85;14.75;;;;;;;-2.71;58.58;100024.72;6275947;22;20027;-62
2024/01/23 07:26:17;;;;;;;29.52;15.52;;;;;;;-2.74;58.93;100010.78;6276403;22;20035;-62
2024/01/23 07:28:43;;;;;;;30.95;16.15;;;;;;;-2.52;58.19;100030.41;6275923;22;20003;-61
2024/01/23 07:31:11;;;;;;;32.42;15.80;;;;;;;-2.47;58.35;100039.88;6276681;22;20285;-64
2024/01/23 07:33:37;;;;;;;35.38;16.33;;;;;;;-2.44;57.82;100036.34;6275887;22;20394;-64
2024/01/23 07:36:02;;;;;;;33.45;15.43;;;;;;;-2.33;57.87;100047.41;6275405;22;20020;-64
2024/01/23 07:38:28;;;;;;;30.00;16.08;;;;;;;-2.23;58.07;100050.69;6276534;22;20003;-63
2024/01/23 07:40:54;;;;;;;30.98;15.60;;;;;;;-2.39;58.15;100020.50;6277674;22;20008;-64
2024/01/23 07:43:25;;;;;;;31.30;15.90;;;;;;;-2.09;57.35;100067.88;6277808;22;20082;-63
2024/01/23 07:45:51;;;;;;;25.98;13.77;;;;;;;-2.08;57.35;100059.94;6278058;22;20023;-63
2024/01/23 07:48:17;;;;;;;29.40;15.68;;;;;;;-2.17;57.61;100065.41;6278078;22;20019;-65
2024/01/23 07:50:42;;;;;;;32.80;17.25;;;;;;;-2.22;58.03;100065.53;6275836;22;20003;-62
2024/01/23 07:53:08;;;;;;;28.20;13.52;;;;;;;-2.20;56.87;100045.38;6278067;22;20090;-65
2024/01/23 07:55:33;;;;;;;31.95;15.93;;;;;;;-2.21;57.11;100062.00;6278053;22;19999;-64
2024/01/23 07:57:59;;;;;;;30.63;17.02;;;;;;;-2.25;57.81;100062.97;6277521;22;20006;-63
2024/01/23 08:00:24;;;;;;;33.92;16.40;;;;;;;-2.22;57.25;100049.78;6277627;22;20061;-63
2024/01/23 08:02:50;;;;;;;33.15;17.13;;;;;;;-2.21;57.44;100062.00;6278084;22;20042;-64
2024/01/23 08:05:15;;;;;;;32.25;16.70;;;;;;;-2.44;57.81;100025.84;6277794;22;20004;-63
2024/01/23 08:07:44;;;;;;;31.77;15.80;;;;;;;-2.29;57.52;100084.94;6277891;22;19999;-63
2024/01/23 08:10:09;;;;;;;31.67;16.77;;;;;;;-2.64;57.60;100018.47;6277940;22;20389;-64
2024/01/23 08:12:36;;;;;;;34.13;15.93;;;;;;;-2.34;57.16;100068.47;6278062;22;20087;-64
2024/01/23 08:15:01;;;;;;;35.72;18.23;;;;;;;-2.41;58.24;100080.84;6277751;22;20003;-63
2024/01/23 08:17:28;;;;;;;40.28;19.00;;;;;;;-2.36;58.29;100075.50;6277523;22;20073;-66
2024/01/23 08:19:54;;;;;;;32.58;16.95;;;;;;;-2.35;58.40;100079.84;6277658;22;20389;-63
2024/01/23 08:22:19;;;;;;;36.17;16.92;;;;;;;-2.40;58.49;100063.34;6277765;22;20124;-62
2024/01/23 08:24:45;;;;;;;37.63;17.77;;;;;;;-2.28;57.81;100078.78;6277782;22;19996;-62
2024/01/23 08:27:11;;;;;;;31.38;16.25;;;;;;;-2.26;57.80;100065.66;6277619;22;20010;-61
2024/01/23 08:29:36;;;;;;;33.58;17.40;;;;;;;-2.25;57.73;100077.88;6276176;22;20071;-63
2024/01/23 08:32:03;;;;;;;34.67;17.13;;;;;;;-2.26;58.03;100065.66;6277858;22;20014;-63
2024/01/23 08:34:30;;;;;;;32.85;17.15;;;;;;;-2.25;58.21;100070.84;6277641;22;20011;-63
2024/01/23 08:36:55;;;;;;;32.63;17.55;;;;;;;-2.19;57.62;100068.06;6276043;22;20029;-64
2024/01/23 08:39:21;;;;;;;33.63;18.05;;;;;;;-2.64;57.55;99994.88;6277229;22;19999;-63
2024/01/23 08:41:47;;;;;;;31.65;17.73;;;;;;;-2.70;58.43;100005.47;6276214;22;20038;-63
2024/01/23 08:44:13;;;;;;;37.70;18.85;;;;;;;-2.25;58.42;100073.47;6277869;22;20008;-63
2024/01/23 08:46:38;;;;;;;37.03;19.33;;;;;;;-2.22;58.13;100069.94;6277248;22;20087;-64
2024/01/23 08:49:04;;;;;;;35.40;18.33;;;;;;;-2.14;57.87;100086.34;6277525;22;20673;-63
2024/01/23 08:51:30;;;;;;;35.65;16.65;;;;;;;-2.17;58.23;100074.16;6277180;22;20011;-64
2024/01/23 08:53:55;;;;;;;33.88;17.15;;;;;;;-2.25;58.14;100076.09;6277755;22;20025;-65
2024/01/23 08:56:23;;;;;;;39.35;18.95;;;;;;;-2.35;58.58;100064.09;6276687;22;20004;-64
2024/01/23 08:58:52;;;;;;;35.50;18.45;;;;;;;-2.38;58.52;100078.16;6275972;22;20023;-63
2024/01/23 09:01:17;;;;;;;34.35;18.77;;;;;;;-2.45;58.86;100064.31;6277536;22;20004;-65
2024/01/23 09:03:46;;;;;;;33.60;17.75;;;;;;;-2.38;58.39;100061.56;6277591;22;20000;-65
2024/01/23 09:06:12;;;;;;;33.42;18.05;;;;;;;-2.31;58.66;100073.63;6277366;22;20003;-66
2024/01/23 09:08:39;;;;;;;35.58;19.15;;;;;;;-2.29;58.89;100047.34;6277102;22;20019;-65
2024/01/23 09:11:05;;;;;;;35.03;18.60;;;;;;;-2.29;58.80;100042.97;6277055;22;20007;-65
2024/01/23 09:13:31;;;;;;;34.97;18.20;;;;;;;-2.23;58.27;100050.69;6277380;22;20296;-66
2024/01/23 09:16:00;;;;;;;39.28;20.27;;;;;;;-2.18;58.65;100040.94;6277133;22;20008;-65
2024/01/23 09:18:29;;;;;;;36.60;18.67;;;;;;;-2.14;58.06;100046.13;6277124;22;19996;-63
2024/01/23 09:20:56;;;;;;;36.65;19.42;;;;;;;-2.19;58.31;100038.38;6277288;22;19995;-65
2024/01/23 09:23:24;;;;;;;36.85;19.40;;;;;;;-2.32;58.76;100019.44;6276916;22;19999;-65
2024/01/23 09:25:51;;;;;;;41.13;20.33;;;;;;;-2.11;58.31;100043.44;6276999;22;20003;-65
2024/01/23 09:28:17;;;;;;;33.25;17.15;;;;;;;-2.07;58.36;100063.44;6277545;22;20000;-58
2024/01/23 09:30:43;;;;;;;40.72;19.65;;;;;;;-2.07;58.52;100038.06;6277065;22;20416;-63
2024/01/23 09:33:09;;;;;;;36.33;18.40;;;;;;;-2.06;58.22;100036.31;6277093;22;20035;-66
2024/01/23 09:35:35;;;;;;;38.83;18.60;;;;;;;-2.05;57.88;100051.16;6276873;22;20078;-65
2024/01/23 09:38:00;;;;;;;36.58;19.15;;;;;;;-2.34;58.02;99981.91;6276951;22;20011;-65
2024/01/23 09:40:26;;;;;;;36.33;17.30;;;;;;;-2.05;58.53;100041.53;6277061;22;20003;-65
2024/01/23 09:42:55;;;;;;;34.65;17.13;;;;;;;-2.42;58.37;99962.88;6277441;22;20397;-65
2024/01/23 09:45:27;;;;;;;34.47;17.60;;;;;;;-2.08;58.34;100027.63;6276348;22;20416;-64
2024/01/23 09:47:53;;;;;;;35.22;18.35;;;;;;;-2.17;58.66;100026.94;6277115;22;20011;-66
2024/01/23 09:50:18;;;;;;;35.17;18.02;;;;;;;-2.45;58.34;99977.78;6277130;22;20008;-60
2024/01/23 09:52:46;;;;;;;34.95;18.10;;;;;;;-2.09;59.06;100039.84;6275917;22;20470;-65
2024/01/23 09:55:12;;;;;;;36.38;18.20;;;;;;;-2.08;59.14;100035.47;6276569;22;20420;-64
2024/01/23 09:57:42;;;;;;;36.80;18.92;;;;;;;-2.02;58.85;100051.94;6276931;22;20302;-65
2024/01/23 10:00:11;;;;;;;32.55;18.08;;;;;;;-2.01;58.29;100037.03;6276825;22;20351;-65
2024/01/23 10:02:39;;;;;;;36.92;17.95;;;;;;;-2.00;58.44;100017.78;6276217;22;20003;-65
2024/01/23 10:05:08;;;;;;;35.20;17.60;;;;;;;-1.98;59.32;100010.72;6276573;22;20008;-65
2024/01/23 10:07:34;;;;;;;37.10;18.80;;;;;;;-1.99;58.89;100019.50;6276767;22;20027;-63
2024/01/23 10:09:59;;;;;;;34.40;18.25;;;;;;;-1.97;58.31;100017.69;6275411;22;20405;-65
2024/01/23 10:12:25;;;;;;;35.70;17.77;;;;;;;-2.04;58.87;100022.25;6276306;22;20006;-65
2024/01/23 10:14:50;;;;;;;37.40;19.02;;;;;;;-2.14;58.77;100019.91;6276550;22;20396;-64
2024/01/23 10:17:15;;;;;;;39.83;19.52;;;;;;;-2.92;59.51;99888.94;6276734;22;20007;-65
2024/01/23 10:19:42;;;;;;;36.63;18.40;;;;;;;-2.18;59.63;100014.69;6276226;22;19999;-65
2024/01/23 10:22:08;;;;;;;39.05;19.20;;;;;;;-2.16;59.08;100014.69;6275363;22;19999;-65
2024/01/23 10:24:33;;;;;;;34.00;18.60;;;;;;;-2.21;59.21;100014.78;6276275;22;20400;-64
2024/01/23 10:26:59;;;;;;;36.28;17.88;;;;;;;-2.17;59.10;100005.97;6276705;22;20003;-65
2024/01/23 10:29:25;;;;;;;37.50;19.23;;;;;;;-2.21;58.91;100008.69;6276670;22;20010;-63
2024/01/23 10:31:50;;;;;;;37.55;20.25;;;;;;;-2.21;59.49;100017.41;6276497;22;19999;-61
2024/01/23 10:34:16;;;;;;;37.80;19.73;;;;;;;-2.22;59.51;100018.31;6276294;22;20010;-63
2024/01/23 10:36:42;;;;;;;38.03;19.45;;;;;;;-2.10;59.75;100022.38;6276656;22;20071;-65
2024/01/23 10:39:08;;;;;;;38.58;19.67;;;;;;;-2.12;60.08;100018.09;6276835;22;20003;-66
2024/01/23 10:41:34;;;;;;;42.08;20.40;;;;;;;-2.09;59.21;100002.28;6276297;22;20275;-66
2024/01/23 10:44:03;;;;;;;36.17;18.25;;;;;;;-2.02;59.14;100003.84;6276272;22;20026;-63
2024/01/23 10:46:33;;;;;;;38.17;19.27;;;;;;;-2.06;59.03;100012.69;6276149;22;20438;-64
2024/01/23 10:48:58;;;;;;;34.67;17.80;;;;;;;-2.02;58.96;100020.44;6276727;22;20008;-65
2024/01/23 10:51:31;;;;;;;34.35;18.30;;;;;;;-2.18;59.34;100016.47;6276113;22;20442;-62
2024/01/23 10:54:08;;;;;;;38.10;18.75;;;;;;;-2.14;59.72;100018.13;6276218;22;20304;-61
2024/01/23 10:56:44;;;;;;;38.90;19.85;;;;;;;-2.08;59.70;100035.47;6276789;22;20034;-63
2024/01/23 10:59:30;;;;;;;39.92;20.67;;;;;;;-2.05;59.75;100022.28;6276080;22;20004;-64
2024/01/23 11:02:03;;;;;;;39.35;19.38;;;;;;;-2.06;59.45;100049.41;6275681;22;20010;-63
2024/01/23 11:04:29;;;;;;;38.70;20.08;;;;;;;-2.12;59.99;100032.06;6275863;22;20423;-65
2024/01/23 11:06:57;;;;;;;36.67;18.55;;;;;;;-2.05;59.67;100044.16;6275572;22;20011;-63